createdAt,value
2017-09-25T00:00:13.942Z,0
2017-09-25T00:01:14.758Z,0
2017-09-25T00:02:14.330Z,0
2017-09-25T00:03:15.072Z,0
2017-09-25T00:04:14.349Z,0
2017-09-25T00:05:14.037Z,0
2017-09-25T00:06:14.372Z,0
2017-09-25T00:07:14.501Z,0
2017-09-25T00:08:14.524Z,0
2017-09-25T00:09:14.882Z,0
2017-09-25T00:10:14.128Z,0
2017-09-25T00:11:15.120Z,0
2017-09-25T00:12:14.488Z,0
2017-09-25T00:13:14.965Z,0
2017-09-25T00:14:14.757Z,0
2017-09-25T00:15:14.882Z,0
2017-09-25T00:16:15.101Z,0
2017-09-25T00:17:14.621Z,0
2017-09-25T00:18:14.962Z,0
2017-09-25T00:19:14.710Z,0
2017-09-25T00:20:15.113Z,0
2017-09-25T00:21:15.083Z,0
2017-09-25T00:22:14.350Z,0
2017-09-25T00:23:14.366Z,0
2017-09-25T00:24:14.706Z,0
2017-09-25T00:25:14.409Z,0
2017-09-25T00:26:15.397Z,0
2017-09-25T00:27:15.179Z,0
2017-09-25T00:28:15.223Z,0
2017-09-25T00:29:15.445Z,0
2017-09-25T00:30:15.266Z,0
2017-09-25T00:31:14.852Z,0
2017-09-25T00:32:14.859Z,0
2017-09-25T00:33:15.532Z,0
2017-09-25T00:34:15.296Z,0
2017-09-25T00:35:14.768Z,0
2017-09-25T00:36:15.296Z,0
2017-09-25T00:37:15.392Z,0
2017-09-25T00:38:15.306Z,0
2017-09-25T00:39:14.986Z,0
2017-09-25T00:40:14.998Z,0
2017-09-25T00:41:15.341Z,0
2017-09-25T00:42:15.158Z,0
2017-09-25T00:43:14.835Z,0
2017-09-25T00:44:15.499Z,0
2017-09-25T00:45:15.193Z,0
2017-09-25T00:46:15.116Z,0
2017-09-25T00:47:15.293Z,0
2017-09-25T00:48:15.146Z,0
2017-09-25T00:49:15.818Z,0
2017-09-25T00:50:23.096Z,0
2017-09-25T00:51:15.621Z,0
2017-09-25T00:52:15.373Z,0
2017-09-25T00:53:15.007Z,0
2017-09-25T00:54:15.939Z,0
2017-09-25T00:55:15.599Z,0
2017-09-25T00:56:15.296Z,0
2017-09-25T00:57:14.988Z,0
2017-09-25T00:58:15.984Z,0
2017-09-25T00:59:15.200Z,0
2017-09-25T01:00:15.712Z,0
2017-09-25T01:01:16.036Z,0
2017-09-25T01:02:15.771Z,0
2017-09-25T01:03:15.101Z,0
2017-09-25T01:04:15.817Z,0
2017-09-25T01:05:15.817Z,0
2017-09-25T01:06:15.159Z,0
2017-09-25T01:07:15.491Z,0
2017-09-25T01:08:15.519Z,0
2017-09-25T01:09:15.531Z,0
2017-09-25T01:10:16.203Z,0
2017-09-25T01:11:15.569Z,0
2017-09-25T01:12:15.588Z,0
2017-09-25T01:13:15.276Z,0
2017-09-25T01:14:15.946Z,0
2017-09-25T01:15:15.651Z,0
2017-09-25T01:16:15.670Z,0
2017-09-25T01:17:15.353Z,0
2017-09-25T01:18:15.776Z,0
2017-09-25T01:19:15.419Z,0
2017-09-25T01:20:15.428Z,0
2017-09-25T01:21:15.757Z,0
2017-09-25T01:22:15.780Z,0
2017-09-25T01:23:15.786Z,0
2017-09-25T01:24:16.137Z,0
2017-09-25T01:25:16.470Z,0
2017-09-25T01:26:15.317Z,0
2017-09-25T01:27:15.858Z,0
2017-09-25T01:28:15.876Z,0
2017-09-25T01:29:15.574Z,0
2017-09-25T01:30:15.586Z,0
2017-09-25T01:31:16.578Z,0
2017-09-25T01:32:16.265Z,0
2017-09-25T01:33:16.299Z,0
2017-09-25T01:34:15.662Z,0
2017-09-25T01:35:16.327Z,0
2017-09-25T01:36:16.336Z,0
2017-09-25T01:37:16.367Z,0
2017-09-25T01:38:16.709Z,0
2017-09-25T01:39:16.077Z,0
2017-09-25T01:40:16.086Z,0
2017-09-25T01:41:16.112Z,0
2017-09-25T01:42:16.452Z,0
2017-09-25T01:43:15.819Z,0
2017-09-25T01:44:15.855Z,0
2017-09-25T01:45:16.181Z,0
2017-09-25T01:46:16.198Z,0
2017-09-25T01:47:16.719Z,0
2017-09-25T01:48:16.557Z,0
2017-09-25T01:49:16.692Z,0
2017-09-25T01:50:16.593Z,0
2017-09-25T01:51:15.970Z,0
2017-09-25T01:52:16.311Z,0
2017-09-25T01:53:16.325Z,0
2017-09-25T01:54:16.669Z,0
2017-09-25T01:55:16.034Z,0
2017-09-25T01:56:16.780Z,0
2017-09-25T01:57:15.749Z,0
2017-09-25T01:58:16.166Z,0
2017-09-25T01:59:15.839Z,0
2017-09-25T02:00:16.774Z,0
2017-09-25T02:01:16.909Z,0
2017-09-25T02:02:16.486Z,0
2017-09-25T02:03:17.245Z,0
2017-09-25T02:04:16.620Z,0
2017-09-25T02:05:16.879Z,0
2017-09-25T02:06:16.916Z,0
2017-09-25T02:07:16.898Z,0
2017-09-25T02:08:16.926Z,0
2017-09-25T02:09:16.942Z,0
2017-09-25T02:10:16.310Z,0
2017-09-25T02:11:17.076Z,0
2017-09-25T02:12:17.106Z,0
2017-09-25T02:13:16.361Z,0
2017-09-25T02:14:16.787Z,0
2017-09-25T02:15:17.230Z,0
2017-09-25T02:16:16.902Z,0
2017-09-25T02:17:17.208Z,0
2017-09-25T02:18:17.099Z,0
2017-09-25T02:19:16.898Z,0
2017-09-25T02:20:16.901Z,0
2017-09-25T02:21:16.919Z,0
2017-09-25T02:22:16.762Z,0
2017-09-25T02:23:16.947Z,0
2017-09-25T02:24:16.758Z,0
2017-09-25T02:25:17.302Z,0
2017-09-25T02:26:16.609Z,0
2017-09-25T02:27:16.768Z,0
2017-09-25T02:28:17.616Z,0
2017-09-25T02:29:16.970Z,0
2017-09-25T02:30:17.643Z,0
2017-09-25T02:31:17.668Z,0
2017-09-25T02:32:17.235Z,0
2017-09-25T02:33:17.046Z,0
2017-09-25T02:34:17.057Z,0
2017-09-25T02:35:17.743Z,0
2017-09-25T02:36:16.906Z,0
2017-09-25T02:37:17.225Z,0
2017-09-25T02:38:17.454Z,0
2017-09-25T02:39:17.238Z,0
2017-09-25T02:40:17.880Z,0
2017-09-25T02:41:17.511Z,0
2017-09-25T02:42:17.211Z,0
2017-09-25T02:43:16.578Z,0
2017-09-25T02:44:17.571Z,0
2017-09-25T02:45:17.900Z,0
2017-09-25T02:46:17.284Z,0
2017-09-25T02:47:16.979Z,0
2017-09-25T02:48:17.969Z,0
2017-09-25T02:49:17.652Z,0
2017-09-25T02:50:17.999Z,0
2017-09-25T02:51:17.687Z,0
2017-09-25T02:52:17.059Z,0
2017-09-25T02:53:17.400Z,0
2017-09-25T02:54:18.105Z,0
2017-09-25T02:55:17.120Z,0
2017-09-25T02:56:17.781Z,0
2017-09-25T02:57:17.798Z,0
2017-09-25T02:58:18.137Z,0
2017-09-25T02:59:17.180Z,0
2017-09-25T03:00:17.524Z,0
2017-09-25T03:01:17.643Z,0
2017-09-25T03:02:17.562Z,0
2017-09-25T03:03:18.103Z,0
2017-09-25T03:04:17.646Z,0
2017-09-25T03:05:18.561Z,0
2017-09-25T03:06:17.312Z,0
2017-09-25T03:07:17.647Z,0
2017-09-25T03:08:18.096Z,0
2017-09-25T03:09:18.122Z,0
2017-09-25T03:10:17.927Z,0
2017-09-25T03:11:18.151Z,0
2017-09-25T03:12:17.836Z,0
2017-09-25T03:13:18.564Z,0
2017-09-25T03:14:18.199Z,0
2017-09-25T03:15:18.016Z,0
2017-09-25T03:16:18.462Z,0
2017-09-25T03:17:18.480Z,0
2017-09-25T03:18:17.956Z,0
2017-09-25T03:19:18.607Z,0
2017-09-25T03:20:18.564Z,0
2017-09-25T03:21:18.484Z,0
2017-09-25T03:22:17.792Z,0
2017-09-25T03:23:18.320Z,0
2017-09-25T03:24:17.635Z,0
2017-09-25T03:25:18.714Z,0
2017-09-25T03:26:18.112Z,0
2017-09-25T03:27:18.266Z,0
2017-09-25T03:28:18.437Z,0
2017-09-25T03:29:18.044Z,0
2017-09-25T03:30:18.403Z,0
2017-09-25T03:31:18.259Z,0
2017-09-25T03:32:17.931Z,0
2017-09-25T03:33:17.939Z,0
2017-09-25T03:34:18.458Z,0
2017-09-25T03:35:18.471Z,0
2017-09-25T03:36:18.529Z,0
2017-09-25T03:37:18.510Z,0
2017-09-25T03:38:18.530Z,0
2017-09-25T03:39:17.982Z,0
2017-09-25T03:40:18.333Z,0
2017-09-25T03:41:18.327Z,0
2017-09-25T03:42:18.766Z,0
2017-09-25T03:43:18.770Z,0
2017-09-25T03:44:18.756Z,0
2017-09-25T03:45:18.238Z,0
2017-09-25T03:46:18.670Z,0
2017-09-25T03:47:18.711Z,0
2017-09-25T03:48:18.713Z,0
2017-09-25T03:49:18.705Z,0
2017-09-25T03:50:18.097Z,0
2017-09-25T03:51:18.114Z,0
2017-09-25T03:52:18.780Z,0
2017-09-25T03:53:18.797Z,0
2017-09-25T03:54:18.805Z,0
2017-09-25T03:55:18.187Z,0
2017-09-25T03:56:18.647Z,0
2017-09-25T03:57:19.003Z,0
2017-09-25T03:58:18.890Z,0
2017-09-25T03:59:19.229Z,0
2017-09-25T04:00:18.934Z,0
2017-09-25T04:01:18.934Z,0
2017-09-25T04:02:18.958Z,0
2017-09-25T04:03:19.444Z,0
2017-09-25T04:04:18.346Z,0
2017-09-25T04:05:18.685Z,0
2017-09-25T04:06:19.553Z,0
2017-09-25T04:07:18.781Z,0
2017-09-25T04:08:18.746Z,0
2017-09-25T04:09:18.755Z,0
2017-09-25T04:10:19.108Z,0
2017-09-25T04:11:18.784Z,0
2017-09-25T04:12:19.134Z,0
2017-09-25T04:13:19.480Z,0
2017-09-25T04:14:19.169Z,0
2017-09-25T04:15:18.858Z,0
2017-09-25T04:16:18.897Z,0
2017-09-25T04:17:19.253Z,0
2017-09-25T04:18:18.920Z,0
2017-09-25T04:19:18.611Z,0
2017-09-25T04:20:18.950Z,0
2017-09-25T04:21:19.624Z,0
2017-09-25T04:22:18.338Z,0
2017-09-25T04:23:19.100Z,0
2017-09-25T04:24:19.056Z,0
2017-09-25T04:25:19.041Z,0
2017-09-25T04:26:19.589Z,0
2017-09-25T04:27:19.107Z,0
2017-09-25T04:28:19.095Z,0
2017-09-25T04:29:18.789Z,0
2017-09-25T04:30:19.131Z,0
2017-09-25T04:31:19.570Z,0
2017-09-25T04:32:19.371Z,0
2017-09-25T04:33:19.551Z,0
2017-09-25T04:34:19.429Z,0
2017-09-25T04:35:19.328Z,0
2017-09-25T04:36:19.559Z,0
2017-09-25T04:37:19.606Z,0
2017-09-25T04:38:18.951Z,0
2017-09-25T04:39:19.293Z,0
2017-09-25T04:40:18.987Z,0
2017-09-25T04:41:19.007Z,0
2017-09-25T04:42:18.693Z,0
2017-09-25T04:43:19.363Z,0
2017-09-25T04:44:20.164Z,0
2017-09-25T04:45:19.503Z,0
2017-09-25T04:46:19.418Z,0
2017-09-25T04:47:19.439Z,0
2017-09-25T04:48:19.896Z,0
2017-09-25T04:49:19.796Z,0
2017-09-25T04:50:19.807Z,0
2017-09-25T04:51:19.876Z,0
2017-09-25T04:52:20.190Z,0
2017-09-25T04:53:19.560Z,0
2017-09-25T04:54:19.568Z,0
2017-09-25T04:55:19.578Z,0
2017-09-25T04:56:19.607Z,0
2017-09-25T04:57:19.705Z,0
2017-09-25T04:58:19.640Z,0
2017-09-25T04:59:20.027Z,0
2017-09-25T05:00:19.670Z,0
2017-09-25T05:01:20.015Z,0
2017-09-25T05:02:20.024Z,0
2017-09-25T05:03:19.718Z,0
2017-09-25T05:04:19.836Z,0
2017-09-25T05:05:19.436Z,0
2017-09-25T05:06:20.324Z,0
2017-09-25T05:07:20.229Z,0
2017-09-25T05:08:19.489Z,0
2017-09-25T05:09:19.831Z,0
2017-09-25T05:10:20.015Z,0
2017-09-25T05:11:20.331Z,0
2017-09-25T05:12:20.324Z,0
2017-09-25T05:13:20.226Z,0
2017-09-25T05:14:20.469Z,0
2017-09-25T05:15:20.161Z,0
2017-09-25T05:16:20.292Z,0
2017-09-25T05:17:20.296Z,0
2017-09-25T05:18:19.993Z,0
2017-09-25T05:19:20.479Z,0
2017-09-25T05:20:20.142Z,0
2017-09-25T05:21:20.515Z,0
2017-09-25T05:22:20.714Z,0
2017-09-25T05:23:20.138Z,0
2017-09-25T05:24:20.754Z,0
2017-09-25T05:25:20.438Z,0
2017-09-25T05:26:19.483Z,0
2017-09-25T05:27:19.823Z,0
2017-09-25T05:28:20.341Z,0
2017-09-25T05:29:20.020Z,0
2017-09-25T05:30:20.877Z,0
2017-09-25T05:31:20.227Z,0
2017-09-25T05:32:20.257Z,0
2017-09-25T05:33:20.633Z,0
2017-09-25T05:34:20.632Z,0
2017-09-25T05:35:19.973Z,0
2017-09-25T05:36:20.956Z,0
2017-09-25T05:37:19.683Z,0
2017-09-25T05:38:20.457Z,0
2017-09-25T05:39:20.570Z,0
2017-09-25T05:40:20.482Z,0
2017-09-25T05:41:20.508Z,0
2017-09-25T05:42:20.739Z,0
2017-09-25T05:43:20.515Z,0
2017-09-25T05:44:21.103Z,0
2017-09-25T05:45:20.801Z,0
2017-09-25T05:46:20.170Z,0
2017-09-25T05:47:21.229Z,0
2017-09-25T05:48:20.526Z,0
2017-09-25T05:49:20.863Z,0
2017-09-25T05:50:20.895Z,0
2017-09-25T05:51:20.261Z,0
2017-09-25T05:52:20.597Z,0
2017-09-25T05:53:20.941Z,0
2017-09-25T05:54:20.309Z,0
2017-09-25T05:55:20.674Z,0
2017-09-25T05:56:20.353Z,0
2017-09-25T05:57:21.015Z,0
2017-09-25T05:58:20.707Z,0
2017-09-25T05:59:20.727Z,0
2017-09-25T06:00:21.066Z,0
2017-09-25T06:01:20.757Z,0
2017-09-25T06:02:20.771Z,0
2017-09-25T06:03:20.478Z,0
2017-09-25T06:04:21.160Z,0
2017-09-25T06:05:21.154Z,0
2017-09-25T06:06:21.177Z,0
2017-09-25T06:07:20.225Z,0
2017-09-25T06:08:20.886Z,0
2017-09-25T06:09:20.903Z,0
2017-09-25T06:10:20.922Z,0
2017-09-25T06:11:20.614Z,0
2017-09-25T06:12:21.291Z,0
2017-09-25T06:13:20.329Z,0
2017-09-25T06:14:20.997Z,0
2017-09-25T06:15:21.339Z,0
2017-09-25T06:16:21.379Z,0
2017-09-25T06:17:21.058Z,0
2017-09-25T06:18:21.161Z,5
2017-09-25T06:19:21.087Z,5
2017-09-25T06:20:21.104Z,5
2017-09-25T06:21:21.771Z,5
2017-09-25T06:22:21.138Z,5
2017-09-25T06:23:20.832Z,5
2017-09-25T06:24:21.173Z,5
2017-09-25T06:25:20.873Z,5
2017-09-25T06:26:21.208Z,5
2017-09-25T06:27:21.558Z,5
2017-09-25T06:28:21.245Z,5
2017-09-25T06:29:20.940Z,5
2017-09-25T06:30:21.498Z,5
2017-09-25T06:31:21.305Z,5
2017-09-25T06:32:21.000Z,5
2017-09-25T06:33:21.671Z,5
2017-09-25T06:34:21.357Z,5
2017-09-25T06:35:21.374Z,5
2017-09-25T06:36:21.066Z,5
2017-09-25T06:37:21.410Z,5
2017-09-25T06:38:22.076Z,5
2017-09-25T06:39:21.881Z,5
2017-09-25T06:40:21.458Z,5
2017-09-25T06:41:21.481Z,5
2017-09-25T06:42:21.295Z,5
2017-09-25T06:43:21.382Z,5
2017-09-25T06:44:21.296Z,5
2017-09-25T06:45:21.949Z,5
2017-09-25T06:46:21.643Z,0
2017-09-25T06:47:21.609Z,0
2017-09-25T06:48:21.720Z,0
2017-09-25T06:49:21.739Z,0
2017-09-25T06:50:22.382Z,0
2017-09-25T06:51:21.339Z,0
2017-09-25T06:52:21.446Z,0
2017-09-25T06:53:21.762Z,0
2017-09-25T06:54:21.802Z,0
2017-09-25T06:55:21.798Z,0
2017-09-25T06:56:21.754Z,0
2017-09-25T06:57:21.836Z,0
2017-09-25T06:58:21.785Z,0
2017-09-25T06:59:22.147Z,0
2017-09-25T07:00:22.361Z,0
2017-09-25T07:01:22.172Z,0
2017-09-25T07:02:22.193Z,0
2017-09-25T07:03:22.075Z,0
2017-09-25T07:04:22.319Z,5
2017-09-25T07:05:21.679Z,5
2017-09-25T07:06:21.706Z,5
2017-09-25T07:07:22.273Z,5
2017-09-25T07:08:22.100Z,5
2017-09-25T07:09:21.761Z,5
2017-09-25T07:10:21.689Z,5
2017-09-25T07:11:22.351Z,0
2017-09-25T07:12:22.053Z,0
2017-09-25T07:13:22.079Z,0
2017-09-25T07:14:21.772Z,0
2017-09-25T07:15:21.777Z,0
2017-09-25T07:16:21.916Z,0
2017-09-25T07:17:22.377Z,0
2017-09-25T07:18:22.388Z,0
2017-09-25T07:19:22.175Z,0
2017-09-25T07:20:22.361Z,0
2017-09-25T07:21:22.283Z,0
2017-09-25T07:22:22.638Z,0
2017-09-25T07:23:22.135Z,0
2017-09-25T07:24:22.785Z,0
2017-09-25T07:25:21.959Z,0
2017-09-25T07:26:22.715Z,0
2017-09-25T07:27:22.719Z,5
2017-09-25T07:28:22.349Z,5
2017-09-25T07:29:22.365Z,5
2017-09-25T07:30:22.380Z,5
2017-09-25T07:31:22.389Z,5
2017-09-25T07:32:22.493Z,5
2017-09-25T07:33:22.434Z,5
2017-09-25T07:34:23.205Z,5
2017-09-25T07:35:22.471Z,5
2017-09-25T07:36:22.808Z,5
2017-09-25T07:37:22.181Z,5
2017-09-25T07:38:22.527Z,10
2017-09-25T07:39:22.554Z,10
2017-09-25T07:40:22.253Z,10
2017-09-25T07:41:22.256Z,10
2017-09-25T07:42:22.601Z,10
2017-09-25T07:43:22.946Z,10
2017-09-25T07:44:22.954Z,10
2017-09-25T07:45:22.660Z,10
2017-09-25T07:46:23.316Z,10
2017-09-25T07:47:23.351Z,10
2017-09-25T07:48:23.030Z,15
2017-09-25T07:49:22.398Z,10
2017-09-25T07:50:22.422Z,10
2017-09-25T07:51:23.180Z,10
2017-09-25T07:52:22.776Z,10
2017-09-25T07:53:22.792Z,10
2017-09-25T07:54:23.140Z,10
2017-09-25T07:55:23.163Z,15
2017-09-25T07:56:23.494Z,15
2017-09-25T07:57:23.516Z,15
2017-09-25T07:58:22.925Z,15
2017-09-25T07:59:22.585Z,15
2017-09-25T08:00:22.601Z,15
2017-09-25T08:01:23.267Z,15
2017-09-25T08:02:23.723Z,15
2017-09-25T08:03:22.656Z,15
2017-09-25T08:04:23.006Z,15
2017-09-25T08:05:23.014Z,15
2017-09-25T08:06:23.473Z,15
2017-09-25T08:07:23.379Z,15
2017-09-25T08:08:23.396Z,15
2017-09-25T08:09:23.627Z,15
2017-09-25T08:10:22.958Z,10
2017-09-25T08:11:23.134Z,10
2017-09-25T08:12:22.931Z,10
2017-09-25T08:13:22.842Z,10
2017-09-25T08:14:22.862Z,15
2017-09-25T08:15:23.978Z,15
2017-09-25T08:16:22.897Z,10
2017-09-25T08:17:23.311Z,10
2017-09-25T08:18:22.938Z,10
2017-09-25T08:19:22.960Z,10
2017-09-25T08:20:23.427Z,10
2017-09-25T08:21:22.995Z,10
2017-09-25T08:22:23.752Z,5
2017-09-25T08:23:23.446Z,5
2017-09-25T08:24:23.611Z,5
2017-09-25T08:25:23.607Z,5
2017-09-25T08:26:23.493Z,10
2017-09-25T08:27:23.289Z,10
2017-09-25T08:28:23.926Z,10
2017-09-25T08:29:23.156Z,10
2017-09-25T08:30:24.148Z,10
2017-09-25T08:31:23.608Z,10
2017-09-25T08:32:23.613Z,5
2017-09-25T08:33:24.180Z,5
2017-09-25T08:34:22.907Z,5
2017-09-25T08:35:23.896Z,5
2017-09-25T08:36:23.756Z,5
2017-09-25T08:37:23.936Z,10
2017-09-25T08:38:24.286Z,10
2017-09-25T08:39:23.968Z,10
2017-09-25T08:40:24.078Z,10
2017-09-25T08:41:23.440Z,10
2017-09-25T08:42:23.937Z,10
2017-09-25T08:43:23.614Z,10
2017-09-25T08:44:23.111Z,10
2017-09-25T08:45:23.616Z,10
2017-09-25T08:46:23.822Z,10
2017-09-25T08:47:23.624Z,10
2017-09-25T08:48:23.948Z,10
2017-09-25T08:49:23.519Z,10
2017-09-25T08:50:24.182Z,10
2017-09-25T08:51:23.556Z,10
2017-09-25T08:52:23.640Z,10
2017-09-25T08:53:24.559Z,10
2017-09-25T08:54:23.365Z,10
2017-09-25T08:55:23.394Z,10
2017-09-25T08:56:24.618Z,10
2017-09-25T08:57:24.320Z,10
2017-09-25T08:58:24.014Z,5
2017-09-25T08:59:24.024Z,5
2017-09-25T09:00:23.913Z,5
2017-09-25T09:01:24.076Z,10
2017-09-25T09:02:24.086Z,10
2017-09-25T09:03:24.197Z,10
2017-09-25T09:04:24.197Z,10
2017-09-25T09:05:23.501Z,5
2017-09-25T09:06:24.488Z,5
2017-09-25T09:07:23.930Z,5
2017-09-25T09:08:24.850Z,5
2017-09-25T09:09:24.875Z,5
2017-09-25T09:10:24.238Z,5
2017-09-25T09:11:24.588Z,5
2017-09-25T09:12:24.920Z,5
2017-09-25T09:13:24.614Z,5
2017-09-25T09:14:24.314Z,0
2017-09-25T09:15:24.330Z,0
2017-09-25T09:16:24.348Z,0
2017-09-25T09:17:24.686Z,0
2017-09-25T09:18:25.042Z,0
2017-09-25T09:19:24.403Z,0
2017-09-25T09:20:23.785Z,0
2017-09-25T09:21:25.090Z,0
2017-09-25T09:22:25.121Z,0
2017-09-25T09:23:24.808Z,0
2017-09-25T09:24:24.822Z,0
2017-09-25T09:25:24.858Z,0
2017-09-25T09:26:24.861Z,0
2017-09-25T09:27:24.337Z,0
2017-09-25T09:28:24.578Z,0
2017-09-25T09:29:24.269Z,0
2017-09-25T09:30:24.938Z,0
2017-09-25T09:31:25.285Z,0
2017-09-25T09:32:24.970Z,0
2017-09-25T09:33:25.319Z,0
2017-09-25T09:34:25.019Z,0
2017-09-25T09:35:24.505Z,0
2017-09-25T09:36:25.530Z,0
2017-09-25T09:37:24.836Z,0
2017-09-25T09:38:25.528Z,0
2017-09-25T09:39:24.876Z,0
2017-09-25T09:40:24.881Z,0
2017-09-25T09:41:25.381Z,0
2017-09-25T09:42:24.518Z,0
2017-09-25T09:43:25.187Z,0
2017-09-25T09:44:25.529Z,0
2017-09-25T09:45:25.565Z,0
2017-09-25T09:46:25.565Z,0
2017-09-25T09:47:24.935Z,0
2017-09-25T09:48:24.951Z,0
2017-09-25T09:49:24.975Z,0
2017-09-25T09:50:24.987Z,0
2017-09-25T09:51:25.338Z,0
2017-09-25T09:52:25.714Z,0
2017-09-25T09:53:25.373Z,0
2017-09-25T09:54:25.063Z,0
2017-09-25T09:55:25.419Z,0
2017-09-25T09:56:25.113Z,0
2017-09-25T09:57:25.122Z,0
2017-09-25T09:58:25.501Z,0
2017-09-25T09:59:25.160Z,0
2017-09-25T10:00:25.179Z,0
2017-09-25T10:01:25.208Z,0
2017-09-25T10:02:25.316Z,0
2017-09-25T10:03:25.347Z,0
2017-09-25T10:04:25.257Z,0
2017-09-25T10:05:25.665Z,0
2017-09-25T10:06:25.297Z,0
2017-09-25T10:07:25.312Z,0
2017-09-25T10:08:25.336Z,0
2017-09-25T10:09:26.118Z,5
2017-09-25T10:10:25.465Z,5
2017-09-25T10:11:25.397Z,5
2017-09-25T10:12:25.415Z,5
2017-09-25T10:13:25.456Z,5
2017-09-25T10:14:25.442Z,5
2017-09-25T10:15:25.791Z,5
2017-09-25T10:16:25.488Z,5
2017-09-25T10:17:25.512Z,5
2017-09-25T10:18:25.529Z,5
2017-09-25T10:19:25.690Z,5
2017-09-25T10:20:25.690Z,5
2017-09-25T10:21:25.897Z,5
2017-09-25T10:22:25.759Z,5
2017-09-25T10:23:25.386Z,5
2017-09-25T10:24:25.731Z,5
2017-09-25T10:25:25.980Z,10
2017-09-25T10:26:25.739Z,10
2017-09-25T10:27:25.877Z,10
2017-09-25T10:28:26.038Z,10
2017-09-25T10:29:26.048Z,10
2017-09-25T10:30:25.766Z,10
2017-09-25T10:31:25.452Z,10
2017-09-25T10:32:25.789Z,10
2017-09-25T10:33:25.486Z,10
2017-09-25T10:34:25.833Z,10
2017-09-25T10:35:26.167Z,10
2017-09-25T10:36:25.867Z,10
2017-09-25T10:37:25.700Z,10
2017-09-25T10:38:26.222Z,10
2017-09-25T10:39:26.246Z,10
2017-09-25T10:40:26.264Z,10
2017-09-25T10:41:25.956Z,10
2017-09-25T10:42:25.804Z,10
2017-09-25T10:43:26.328Z,10
2017-09-25T10:44:26.654Z,10
2017-09-25T10:45:26.033Z,15
2017-09-25T10:46:26.051Z,15
2017-09-25T10:47:25.744Z,15
2017-09-25T10:48:26.088Z,15
2017-09-25T10:49:26.308Z,15
2017-09-25T10:50:26.549Z,15
2017-09-25T10:51:26.271Z,15
2017-09-25T10:52:26.594Z,15
2017-09-25T10:53:26.299Z,15
2017-09-25T10:54:26.662Z,20
2017-09-25T10:55:26.771Z,20
2017-09-25T10:56:26.445Z,20
2017-09-25T10:57:26.460Z,20
2017-09-25T10:58:26.455Z,25
2017-09-25T10:59:26.486Z,25
2017-09-25T11:00:26.779Z,25
2017-09-25T11:01:26.665Z,25
2017-09-25T11:02:26.686Z,25
2017-09-25T11:03:26.272Z,30
2017-09-25T11:04:27.031Z,30
2017-09-25T11:05:26.272Z,30
2017-09-25T11:06:26.922Z,30
2017-09-25T11:07:27.159Z,30
2017-09-25T11:08:27.124Z,35
2017-09-25T11:09:26.822Z,35
2017-09-25T11:10:26.833Z,35
2017-09-25T11:11:26.766Z,35
2017-09-25T11:12:26.975Z,35
2017-09-25T11:13:25.939Z,35
2017-09-25T11:14:26.254Z,35
2017-09-25T11:15:26.607Z,35
2017-09-25T11:16:26.946Z,40
2017-09-25T11:17:26.644Z,40
2017-09-25T11:18:26.015Z,40
2017-09-25T11:19:26.427Z,40
2017-09-25T11:20:26.700Z,45
2017-09-25T11:21:26.391Z,45
2017-09-25T11:22:27.094Z,45
2017-09-25T11:23:26.790Z,45
2017-09-25T11:24:26.447Z,45
2017-09-25T11:25:26.798Z,45
2017-09-25T11:26:26.487Z,45
2017-09-25T11:27:27.166Z,45
2017-09-25T11:28:26.851Z,45
2017-09-25T11:29:26.874Z,45
2017-09-25T11:30:26.241Z,45
2017-09-25T11:31:26.992Z,45
2017-09-25T11:32:26.993Z,45
2017-09-25T11:33:27.273Z,45
2017-09-25T11:34:26.644Z,45
2017-09-25T11:35:26.986Z,45
2017-09-25T11:36:27.331Z,40
2017-09-25T11:37:27.025Z,40
2017-09-25T11:38:26.720Z,40
2017-09-25T11:39:27.386Z,40
2017-09-25T11:40:27.085Z,40
2017-09-25T11:41:26.781Z,35
2017-09-25T11:42:26.801Z,35
2017-09-25T11:43:26.820Z,35
2017-09-25T11:44:26.835Z,35
2017-09-25T11:45:27.513Z,35
2017-09-25T11:46:27.204Z,30
2017-09-25T11:47:27.540Z,30
2017-09-25T11:48:27.570Z,30
2017-09-25T11:49:27.260Z,30
2017-09-25T11:50:27.611Z,30
2017-09-25T11:51:27.623Z,30
2017-09-25T11:52:27.638Z,30
2017-09-25T11:53:27.036Z,30
2017-09-25T11:54:27.049Z,35
2017-09-25T11:55:27.387Z,35
2017-09-25T11:56:27.081Z,35
2017-09-25T11:57:27.415Z,35
2017-09-25T11:58:27.776Z,30
2017-09-25T11:59:27.134Z,30
2017-09-25T12:00:27.153Z,30
2017-09-25T12:01:27.563Z,30
2017-09-25T12:02:27.517Z,25
2017-09-25T12:03:27.540Z,25
2017-09-25T12:04:28.291Z,25
2017-09-25T12:05:28.228Z,25
2017-09-25T12:06:27.964Z,20
2017-09-25T12:07:27.937Z,20
2017-09-25T12:08:28.000Z,20
2017-09-25T12:09:27.650Z,20
2017-09-25T12:10:28.002Z,20
2017-09-25T12:11:27.694Z,25
2017-09-25T12:12:28.041Z,25
2017-09-25T12:13:28.059Z,30
2017-09-25T12:14:27.427Z,30
2017-09-25T12:15:27.125Z,30
2017-09-25T12:16:27.471Z,30
2017-09-25T12:17:28.138Z,35
2017-09-25T12:18:27.189Z,35
2017-09-25T12:19:28.181Z,35
2017-09-25T12:20:28.201Z,30
2017-09-25T12:21:27.973Z,30
2017-09-25T12:22:27.972Z,30
2017-09-25T12:23:27.971Z,30
2017-09-25T12:24:27.971Z,30
2017-09-25T12:25:27.649Z,30
2017-09-25T12:26:28.000Z,30
2017-09-25T12:27:27.689Z,30
2017-09-25T12:28:28.045Z,30
2017-09-25T12:29:28.053Z,30
2017-09-25T12:30:28.342Z,30
2017-09-25T12:31:28.419Z,30
2017-09-25T12:32:28.112Z,30
2017-09-25T12:33:27.811Z,30
2017-09-25T12:34:27.506Z,30
2017-09-25T12:35:27.860Z,30
2017-09-25T12:36:28.187Z,30
2017-09-25T12:37:28.218Z,30
2017-09-25T12:38:28.882Z,30
2017-09-25T12:39:28.336Z,35
2017-09-25T12:40:27.953Z,30
2017-09-25T12:41:28.484Z,30
2017-09-25T12:42:28.668Z,30
2017-09-25T12:43:29.117Z,25
2017-09-25T12:44:28.148Z,35
2017-09-25T12:45:28.294Z,40
2017-09-25T12:46:29.208Z,40
2017-09-25T12:47:29.214Z,40
2017-09-25T12:48:28.788Z,45
2017-09-25T12:49:28.787Z,45
2017-09-25T12:50:29.019Z,45
2017-09-25T12:51:29.289Z,45
2017-09-25T12:52:29.286Z,45
2017-09-25T12:53:28.206Z,45
2017-09-25T12:54:28.228Z,45
2017-09-25T12:55:28.568Z,45
2017-09-25T12:56:28.352Z,45
2017-09-25T12:57:28.284Z,45
2017-09-25T12:58:28.328Z,40
2017-09-25T12:59:28.332Z,40
2017-09-25T13:00:28.355Z,35
2017-09-25T13:01:28.688Z,35
2017-09-25T13:02:29.367Z,35
2017-09-25T13:03:28.836Z,30
2017-09-25T13:04:28.786Z,30
2017-09-25T13:05:29.289Z,30
2017-09-25T13:06:29.125Z,30
2017-09-25T13:07:28.493Z,30
2017-09-25T13:08:28.845Z,25
2017-09-25T13:09:29.510Z,25
2017-09-25T13:10:29.296Z,25
2017-09-25T13:11:29.550Z,25
2017-09-25T13:12:28.689Z,20
2017-09-25T13:13:29.147Z,20
2017-09-25T13:14:29.034Z,20
2017-09-25T13:15:29.647Z,15
2017-09-25T13:16:29.654Z,15
2017-09-25T13:17:28.702Z,15
2017-09-25T13:18:29.155Z,15
2017-09-25T13:19:29.388Z,15
2017-09-25T13:20:29.142Z,15
2017-09-25T13:21:29.434Z,20
2017-09-25T13:22:29.448Z,15
2017-09-25T13:23:29.149Z,15
2017-09-25T13:24:28.838Z,15
2017-09-25T13:25:28.951Z,20
2017-09-25T13:26:28.980Z,25
2017-09-25T13:27:29.556Z,20
2017-09-25T13:28:29.260Z,15
2017-09-25T13:29:29.283Z,15
2017-09-25T13:30:29.289Z,15
2017-09-25T13:31:29.962Z,15
2017-09-25T13:32:29.016Z,15
2017-09-25T13:33:29.359Z,25
2017-09-25T13:34:30.024Z,35
2017-09-25T13:35:30.038Z,35
2017-09-25T13:36:29.099Z,35
2017-09-25T13:37:29.435Z,35
2017-09-25T13:38:29.457Z,30
2017-09-25T13:39:29.808Z,30
2017-09-25T13:40:29.914Z,35
2017-09-25T13:41:30.085Z,40
2017-09-25T13:42:30.081Z,45
2017-09-25T13:43:29.772Z,45
2017-09-25T13:44:30.292Z,45
2017-09-25T13:45:30.100Z,50
2017-09-25T13:46:29.776Z,55
2017-09-25T13:47:29.332Z,55
2017-09-25T13:48:30.085Z,55
2017-09-25T13:49:29.367Z,50
2017-09-25T13:50:30.178Z,45
2017-09-25T13:51:29.901Z,45
2017-09-25T13:52:29.790Z,45
2017-09-25T13:53:29.909Z,40
2017-09-25T13:54:30.118Z,40
2017-09-25T13:55:29.906Z,30
2017-09-25T13:56:30.483Z,20
2017-09-25T13:57:30.506Z,15
2017-09-25T13:58:30.307Z,15
2017-09-25T14:02:34.558Z,20
2017-09-25T14:03:18.717Z,20
2017-09-25T14:04:19.073Z,20
2017-09-25T14:05:19.164Z,20
2017-09-25T14:06:19.191Z,25
2017-09-25T14:07:19.546Z,25
2017-09-25T14:08:51.288Z,25
2017-09-25T14:09:18.922Z,25
2017-09-25T14:10:19.279Z,20
2017-09-25T14:11:18.972Z,25
2017-09-25T14:12:18.989Z,30
2017-09-25T14:13:19.344Z,35
2017-09-25T14:14:19.035Z,35
2017-09-25T14:15:19.382Z,35
2017-09-25T14:16:19.407Z,35
2017-09-25T14:17:19.916Z,40
2017-09-25T14:18:19.448Z,45
2017-09-25T14:19:19.923Z,45
2017-09-25T14:20:19.501Z,45
2017-09-25T14:21:19.623Z,45
2017-09-25T14:22:19.952Z,50
2017-09-25T14:23:20.312Z,40
2017-09-25T14:24:19.760Z,40
2017-09-25T14:25:19.757Z,45
2017-09-25T14:26:20.090Z,45
2017-09-25T14:27:19.748Z,40
2017-09-25T14:28:20.091Z,35
2017-09-25T14:29:20.024Z,35
2017-09-25T14:30:20.039Z,35
2017-09-25T14:31:20.072Z,35
2017-09-25T14:32:19.899Z,35
2017-09-25T14:33:19.897Z,35
2017-09-25T14:34:19.593Z,35
2017-09-25T14:35:19.227Z,35
2017-09-25T14:36:19.524Z,35
2017-09-25T14:37:20.087Z,35
2017-09-25T14:38:20.545Z,35